Time;durP1;ratioP1;P1;durP2;ratioP2;P2;SDS_P1;SDS_P2;PMS_P1;PMS_P2;Temp;Humidity;BMP_temperature;BMP_pressure;BME280_temperature;BME280_humidity;BME280_pressure;Samples;Min_cycle;Max_cycle;Signal;HPM_P1;HPM_P2
2021/04/01 00:01:35;;;;;;;4.55;3.00;;;;;;;13.72;47.87;98260.06;5041609;28;20209;-85
2021/04/01 00:04:01;;;;;;;6.10;3.20;;;;;;;13.71;47.71;98257.50;5039350;28;20214;-87
2021/04/01 00:06:27;;;;;;;4.03;3.25;;;;;;;13.68;47.67;98259.38;5040507;28;20234;-87
2021/04/01 00:08:53;;;;;;;5.82;3.50;;;;;;;13.65;47.75;98254.28;5038655;28;20252;-85
2021/04/01 00:11:20;;;;;;;5.50;3.10;;;;;;;13.64;47.97;98249.97;5039770;28;20238;-87
2021/04/01 00:13:46;;;;;;;6.13;3.60;;;;;;;13.58;47.73;98244.16;5044671;28;20218;-87
2021/04/01 00:16:13;;;;;;;5.85;3.45;;;;;;;13.50;48.12;98255.03;5040505;28;20222;-86
2021/04/01 00:18:39;;;;;;;4.63;3.15;;;;;;;13.47;48.34;98249.94;5042925;28;20587;-83
2021/04/01 00:21:05;;;;;;;5.28;3.50;;;;;;;13.48;47.91;98251.63;5040582;28;20216;-82
2021/04/01 00:23:31;;;;;;;3.83;3.00;;;;;;;13.43;48.05;98246.59;5040867;28;20221;-83
2021/04/01 00:25:57;;;;;;;5.47;3.05;;;;;;;13.37;48.37;98241.69;5039596;28;20217;-82
2021/04/01 00:28:24;;;;;;;4.38;3.22;;;;;;;13.32;48.10;98240.22;5039239;28;20240;-82
2021/04/01 00:30:50;;;;;;;6.22;3.45;;;;;;;13.20;48.39;98242.47;5042035;28;20646;-82
2021/04/01 00:33:16;;;;;;;7.05;3.17;;;;;;;13.18;48.07;98240.81;5040345;28;20214;-82
2021/04/01 00:35:42;;;;;;;5.78;3.47;;;;;;;13.16;48.48;98234.81;5041863;28;20237;-82
2021/04/01 00:38:08;;;;;;;5.60;3.20;;;;;;;13.06;48.89;98234.41;5043823;28;20230;-82
2021/04/01 00:40:34;;;;;;;5.53;3.28;;;;;;;13.06;48.68;98239.66;5039973;28;20251;-82
2021/04/01 00:43:00;;;;;;;7.10;3.50;;;;;;;13.03;48.83;98229.31;5041131;28;20237;-83
2021/04/01 00:45:27;;;;;;;5.35;3.15;;;;;;;13.05;49.12;98228.34;5038864;28;20214;-82
2021/04/01 00:47:53;;;;;;;7.05;3.75;;;;;;;13.05;48.73;98223.09;5036987;28;20253;-83
2021/04/01 00:50:21;;;;;;;7.43;3.42;;;;;;;13.02;49.14;98217.16;5042497;28;21303;-83
2021/04/01 00:52:47;;;;;;;5.93;3.20;;;;;;;13.01;49.52;98216.31;5040101;28;20256;-83
2021/04/01 00:55:14;;;;;;;6.13;3.10;;;;;;;12.96;49.09;98220.03;5038592;28;20206;-83
2021/04/01 00:57:42;;;;;;;7.65;3.53;;;;;;;12.80;49.46;98217.31;5046076;28;20558;-82
2021/04/01 01:00:11;;;;;;;6.40;3.60;;;;;;;12.71;49.32;98214.19;5045247;28;20230;-82
2021/04/01 01:02:37;;;;;;;6.00;3.40;;;;;;;12.63;49.59;98213.72;5044624;28;20206;-82
2021/04/01 01:05:05;;;;;;;6.85;3.92;;;;;;;12.49;49.56;98209.09;5044809;28;20218;-83
2021/04/01 01:07:31;;;;;;;5.15;3.75;;;;;;;12.45;49.59;98212.78;5045149;28;20230;-84
2021/04/01 01:09:57;;;;;;;5.10;3.25;;;;;;;12.47;50.33;98207.47;5041619;28;20241;-83
2021/04/01 01:12:23;;;;;;;5.68;3.78;;;;;;;12.51;49.76;98209.88;5043181;28;20222;-82
2021/04/01 01:14:49;;;;;;;6.85;3.67;;;;;;;12.57;50.27;98210.50;5043209;28;20268;-83
2021/04/01 01:17:15;;;;;;;4.45;3.10;;;;;;;12.55;50.39;98207.97;5044528;28;20233;-82
2021/04/01 01:19:47;;;;;;;5.00;3.35;;;;;;;12.53;49.72;98208.06;5043667;28;20240;-83
2021/04/01 01:22:13;;;;;;;7.28;3.53;;;;;;;12.54;50.32;98201.03;5043772;28;20220;-82
2021/04/01 01:24:40;;;;;;;6.85;3.67;;;;;;;12.54;50.43;98196.66;5040889;28;20267;-83
2021/04/01 01:27:07;;;;;;;5.00;3.08;;;;;;;12.56;50.20;98193.13;5045447;28;20242;-82
2021/04/01 01:29:33;;;;;;;5.30;3.30;;;;;;;12.50;50.85;98195.09;5044301;28;20214;-82
2021/04/01 01:31:59;;;;;;;4.68;3.60;;;;;;;12.49;50.39;98193.38;5039629;28;20226;-83
2021/04/01 01:34:25;;;;;;;9.43;3.55;;;;;;;12.48;50.78;98186.47;5042789;28;20925;-82
2021/04/01 01:36:52;;;;;;;8.27;3.83;;;;;;;12.49;50.41;98189.94;5042047;28;20230;-83
2021/04/01 01:39:18;;;;;;;4.35;3.28;;;;;;;12.46;50.79;98190.06;5042943;28;20210;-82
2021/04/01 01:41:45;;;;;;;5.82;3.30;;;;;;;12.31;50.85;98189.00;5042842;28;20220;-82
2021/04/01 01:44:11;;;;;;;5.60;3.53;;;;;;;12.30;51.17;98182.91;5041799;28;20222;-83
2021/04/01 01:46:37;;;;;;;6.07;3.70;;;;;;;12.29;51.12;98185.59;5046326;28;20230;-82
2021/04/01 01:49:03;;;;;;;5.55;3.50;;;;;;;12.31;51.17;98186.38;5043248;28;20224;-82
2021/04/01 01:51:32;;;;;;;7.15;3.40;;;;;;;12.31;51.40;98189.00;5043327;28;20242;-83
2021/04/01 01:53:58;;;;;;;4.43;3.55;;;;;;;12.29;51.08;98183.81;5044618;28;20217;-83
2021/04/01 01:56:26;;;;;;;4.85;3.35;;;;;;;12.30;51.27;98182.09;5042754;28;20613;-83
2021/04/01 01:58:53;;;;;;;6.90;3.33;;;;;;;12.30;51.29;98176.84;5042158;28;20310;-82
2021/04/01 02:01:21;;;;;;;9.13;3.88;;;;;;;12.24;51.10;98171.88;5045063;28;20214;-82
2021/04/01 02:03:47;;;;;;;6.72;3.60;;;;;;;12.12;51.21;98181.13;5041337;28;20217;-82
2021/04/01 02:06:14;;;;;;;3.78;3.00;;;;;;;12.09;51.30;98178.63;5046698;28;20213;-82
2021/04/01 02:08:40;;;;;;;5.18;3.58;;;;;;;12.11;51.10;98182.03;5043986;28;20214;-82
2021/04/01 02:11:07;;;;;;;7.65;3.50;;;;;;;12.12;51.86;98181.97;5042712;28;20245;-83
2021/04/01 02:13:33;;;;;;;6.03;3.80;;;;;;;12.07;51.04;98173.47;5043876;28;20708;-81
2021/04/01 02:16:00;;;;;;;6.95;3.88;;;;;;;12.02;51.50;98183.31;5044345;28;20751;-82
2021/04/01 02:18:28;;;;;;;7.57;3.30;;;;;;;12.00;51.03;98173.81;5041669;28;20231;-83
2021/04/01 02:20:55;;;;;;;7.57;3.83;;;;;;;12.00;51.70;98174.66;5040140;28;20255;-82
2021/04/01 02:23:23;;;;;;;6.90;3.38;;;;;;;11.98;51.48;98175.66;5041236;28;20214;-82
2021/04/01 02:25:50;;;;;;;4.82;3.25;;;;;;;11.96;51.64;98178.34;5042488;28;20210;-82
2021/04/01 02:28:17;;;;;;;5.40;4.03;;;;;;;11.98;51.34;98171.25;5043082;28;20241;-82
2021/04/01 02:30:45;;;;;;;6.25;3.50;;;;;;;11.96;51.69;98167.88;5042938;28;20230;-82
2021/04/01 02:33:13;;;;;;;7.75;3.58;;;;;;;11.92;51.49;98182.00;5041149;28;20240;-82
2021/04/01 02:35:39;;;;;;;4.75;3.22;;;;;;;11.87;51.65;98178.69;5046278;28;20218;-83
2021/04/01 02:38:06;;;;;;;7.47;3.40;;;;;;;11.84;51.58;98178.84;5045140;28;20242;-83
2021/04/01 02:40:32;;;;;;;5.35;3.80;;;;;;;11.80;51.67;98174.66;5040296;28;20749;-83
2021/04/01 02:42:59;;;;;;;4.10;3.17;;;;;;;11.84;51.68;98178.84;5040738;28;20241;-83
2021/04/01 02:45:25;;;;;;;6.55;3.38;;;;;;;11.84;52.32;98178.84;5042392;28;20222;-83
2021/04/01 02:47:51;;;;;;;4.60;3.28;;;;;;;11.83;52.51;98177.16;5038348;28;20234;-83
2021/04/01 02:50:18;;;;;;;5.47;3.45;;;;;;;11.87;52.24;98178.69;5042959;28;20245;-82
2021/04/01 02:52:45;;;;;;;8.30;3.50;;;;;;;11.85;52.09;98170.91;5042593;28;20218;-82
2021/04/01 02:55:12;;;;;;;5.28;3.90;;;;;;;11.76;51.71;98166.09;5044578;28;20309;-83
2021/04/01 02:57:39;;;;;;;8.13;3.80;;;;;;;11.75;51.95;98165.25;5043618;28;20238;-83
2021/04/01 03:00:07;;;;;;;6.63;3.97;;;;;;;11.68;52.00;98158.59;5042063;28;20214;-82
2021/04/01 03:02:34;;;;;;;6.28;3.55;;;;;;;11.72;52.27;98165.38;5043659;28;20214;-82
2021/04/01 03:05:05;;;;;;;7.30;4.07;;;;;;;11.75;52.43;98162.63;5042857;28;20708;-82
2021/04/01 03:07:32;;;;;;;5.80;3.78;;;;;;;11.74;52.08;98160.97;5040397;28;20257;-83
2021/04/01 03:09:58;;;;;;;7.40;3.72;;;;;;;11.68;52.23;98168.19;5039762;28;20240;-82
2021/04/01 03:12:24;;;;;;;5.35;3.78;;;;;;;11.58;52.60;98162.53;5040428;28;20210;-82
2021/04/01 03:14:50;;;;;;;8.80;3.60;;;;;;;11.44;52.67;98165.72;5039455;28;20205;-83
2021/04/01 03:17:16;;;;;;;6.28;3.33;;;;;;;11.25;52.50;98162.16;5040854;28;20226;-82
2021/04/01 03:19:42;;;;;;;7.63;3.53;;;;;;;11.21;53.13;98164.03;5040373;28;20217;-83
2021/04/01 03:22:08;;;;;;;6.10;3.60;;;;;;;11.18;53.32;98159.81;5042368;28;20222;-82
2021/04/01 03:24:35;;;;;;;7.85;3.90;;;;;;;11.10;53.22;98161.00;5042102;28;20218;-83
2021/04/01 03:27:01;;;;;;;6.43;4.00;;;;;;;11.11;53.46;98165.34;5042402;28;21250;-83
2021/04/01 03:29:27;;;;;;;4.32;3.50;;;;;;;11.16;53.64;98160.78;5041713;28;20214;-83
2021/04/01 03:31:53;;;;;;;5.13;3.50;;;;;;;11.19;53.16;98155.41;5041566;28;20237;-83
2021/04/01 03:34:19;;;;;;;7.28;4.07;;;;;;;11.26;53.48;98156.88;5038927;28;20587;-82
2021/04/01 03:36:45;;;;;;;5.55;3.50;;;;;;;11.30;53.76;98158.47;5040510;28;20788;-82
2021/04/01 03:39:12;;;;;;;7.10;3.60;;;;;;;11.34;53.38;98149.59;5039189;28;20210;-82
2021/04/01 03:41:39;;;;;;;7.70;3.80;;;;;;;11.38;52.61;98147.69;5039412;28;20241;-82
2021/04/01 03:44:05;;;;;;;7.10;3.45;;;;;;;11.36;53.93;98147.75;5039083;28;20241;-83
2021/04/01 03:46:31;;;;;;;7.10;3.55;;;;;;;11.32;53.55;98140.09;5042204;28;20347;-83
2021/04/01 03:48:57;;;;;;;9.15;4.18;;;;;;;11.33;53.11;98147.88;5040248;28;20287;-82
2021/04/01 03:51:23;;;;;;;7.25;3.78;;;;;;;11.29;53.14;98146.31;5043730;28;21224;-82
2021/04/01 03:53:49;;;;;;;5.30;3.53;;;;;;;11.27;53.28;98153.34;5039935;28;21107;-82
2021/04/01 03:56:15;;;;;;;6.55;4.00;;;;;;;11.30;53.28;98157.59;5039922;28;20214;-82
2021/04/01 03:58:59;;;;;;;4.63;3.22;;;;;;;11.31;53.46;98159.31;5039832;28;20202;-83
2021/04/01 04:01:48;;;;;;;5.03;3.35;;;;;;;11.26;53.43;98156.88;5041135;28;20202;-82
2021/04/01 04:10:19;;;;;;;5.13;3.40;;;;;;;11.14;53.46;98160.00;5041146;28;20699;-82
2021/04/01 04:13:00;;;;;;;7.43;3.90;;;;;;;11.11;53.53;98150.50;5042711;28;20216;-82
2021/04/01 04:15:27;;;;;;;5.72;3.35;;;;;;;11.11;53.50;98147.06;5042644;28;20709;-82
2021/04/01 04:17:53;;;;;;;6.63;4.03;;;;;;;11.11;54.04;98147.06;5043086;28;20245;-82
2021/04/01 04:20:20;;;;;;;6.90;3.70;;;;;;;11.07;53.32;98140.28;5043289;28;20642;-82
2021/04/01 04:22:46;;;;;;;4.70;3.72;;;;;;;11.00;54.00;98145.72;5041702;28;20241;-82
2021/04/01 04:25:14;;;;;;;6.97;3.90;;;;;;;10.91;53.46;98146.09;5038811;28;20601;-83
2021/04/01 04:28:00;;;;;;;4.65;3.45;;;;;;;10.86;54.04;98145.44;5037794;28;20314;-84
2021/04/01 04:30:28;;;;;;;8.70;3.85;;;;;;;10.86;54.45;98142.81;5039929;28;20361;-82
2021/04/01 04:32:55;;;;;;;7.05;3.97;;;;;;;10.87;53.79;98139.31;5040706;28;20210;-82
2021/04/01 04:35:21;;;;;;;6.00;3.90;;;;;;;10.82;53.81;98141.25;5045614;28;20214;-83
2021/04/01 04:37:47;;;;;;;4.20;3.53;;;;;;;10.79;53.71;98147.44;5046471;28;20887;-82
2021/04/01 04:40:14;;;;;;;7.07;4.18;;;;;;;10.69;54.17;98150.47;5041042;28;20236;-82
2021/04/01 04:42:40;;;;;;;5.80;3.45;;;;;;;10.49;53.81;98154.69;5044695;28;20216;-82
2021/04/01 04:45:07;;;;;;;7.20;4.45;;;;;;;10.30;54.13;98153.66;5047377;28;20217;-83
2021/04/01 04:47:34;;;;;;;7.68;4.03;;;;;;;10.15;54.27;98150.72;5044145;28;21152;-83
2021/04/01 04:50:01;;;;;;;5.00;3.67;;;;;;;10.16;54.69;98147.22;5042710;28;20301;-82
2021/04/01 04:52:27;;;;;;;7.65;4.05;;;;;;;10.27;54.55;98149.41;5041918;28;21043;-83
2021/04/01 04:54:54;;;;;;;7.78;4.15;;;;;;;10.34;54.54;98144.84;5041317;28;20214;-83
2021/04/01 04:57:23;;;;;;;5.45;3.53;;;;;;;10.39;54.46;98153.34;5041778;28;20230;-82
2021/04/01 05:00:07;;;;;;;5.57;3.42;;;;;;;10.45;54.52;98153.13;5044089;28;20760;-82
2021/04/01 05:05:18;;;;;;;7.20;3.67;;;;;;;10.44;54.56;98142.72;5044921;28;20248;-82
2021/04/01 05:07:44;;;;;;;5.95;3.85;;;;;;;10.51;54.40;98154.63;5048129;28;20234;-83
2021/04/01 05:10:11;;;;;;;9.00;4.00;;;;;;;10.53;53.97;98145.88;5044730;28;20334;-83
2021/04/01 05:12:37;;;;;;;6.25;4.00;;;;;;;10.49;54.15;98152.09;5047453;28;20218;-82
2021/04/01 05:15:04;;;;;;;6.03;3.78;;;;;;;10.43;54.20;98154.94;5046522;28;20218;-83
2021/04/01 05:17:30;;;;;;;5.55;3.97;;;;;;;10.41;54.40;98154.16;5044748;28;20708;-85
2021/04/01 05:20:00;;;;;;;7.75;4.10;;;;;;;10.44;54.29;98151.44;5044258;28;20777;-82
2021/04/01 05:22:32;;;;;;;5.43;4.15;;;;;;;10.49;54.29;98157.28;5044241;28;20762;-82
2021/04/01 05:24:59;;;;;;;7.18;4.10;;;;;;;10.30;54.10;98153.66;5043890;28;21034;-82
2021/04/01 05:27:28;;;;;;;8.43;4.07;;;;;;;10.27;54.89;98154.63;5044861;28;20239;-81
2021/04/01 05:30:01;;;;;;;6.57;3.63;;;;;;;10.31;54.86;98160.59;5043811;28;20209;-82
2021/04/01 05:32:28;;;;;;;6.15;4.40;;;;;;;10.30;55.50;98158.88;5046744;28;20558;-86
2021/04/01 05:34:55;;;;;;;7.68;4.32;;;;;;;10.35;55.29;98157.00;5051904;28;20249;-89
2021/04/01 05:37:25;;;;;;;8.82;4.63;;;;;;;10.36;55.13;98156.06;5045801;28;20926;-87
2021/04/01 05:39:53;;;;;;;8.38;4.15;;;;;;;10.38;54.97;98165.56;5044628;28;20241;-91
2021/04/01 05:42:21;;;;;;;6.90;4.07;;;;;;;10.31;55.14;98160.59;5044914;28;21213;-89
2021/04/01 05:44:50;;;;;;;9.88;4.00;;;;;;;10.17;55.36;98161.94;5044393;28;20209;-88
2021/04/01 05:47:19;;;;;;;7.72;4.25;;;;;;;10.11;55.50;98176.94;5041710;28;20830;-82
2021/04/01 05:53:00;;;;;;;5.80;4.35;;;;;;;10.14;56.47;98175.06;5019827;28;20507;-89
2021/04/01 06:04:26;;;;;;;7.63;4.32;;;;;;;10.47;55.55;98166.09;5006486;28;20206;-90
2021/04/01 06:07:01;;;;;;;7.15;4.22;;;;;;;10.36;55.43;98164.72;5024589;28;20325;-88
2021/04/01 06:12:14;;;;;;;5.35;3.92;;;;;;;10.25;56.15;98160.81;5092967;27;20607;-84
2021/04/01 06:15:09;;;;;;;8.73;4.78;;;;;;;10.27;56.12;98172.03;5095832;27;20875;-81
2021/04/01 06:17:35;;;;;;;6.75;4.47;;;;;;;10.31;56.08;98173.63;5098992;27;20260;-78
2021/04/01 06:20:04;;;;;;;12.82;5.00;;;;;;;10.31;56.37;98171.03;5102588;28;20210;-77
2021/04/01 06:22:30;;;;;;;9.55;4.68;;;;;;;10.38;56.33;98175.13;5100625;28;20242;-74
2021/04/01 06:24:57;;;;;;;7.15;4.60;;;;;;;10.51;56.65;98168.56;5104015;27;20208;-74
2021/04/01 06:27:32;;;;;;;8.93;4.82;;;;;;;10.61;56.58;98169.03;5106687;27;20235;-73
2021/04/01 06:30:19;;;;;;;8.93;5.20;;;;;;;10.71;56.21;98169.53;5104837;28;20253;-74
2021/04/01 06:32:47;;;;;;;10.55;4.75;;;;;;;10.85;56.16;98162.00;5106626;28;20225;-74
2021/04/01 06:35:22;;;;;;;8.73;4.75;;;;;;;10.93;55.99;98165.16;5104707;27;20215;-73
2021/04/01 06:40:57;;;;;;;10.38;4.90;;;;;;;10.98;55.27;98165.81;5077269;28;20350;-73
2021/04/01 06:43:48;;;;;;;10.02;5.22;;;;;;;11.02;56.30;98173.53;5102740;28;20833;-75
2021/04/01 06:46:16;;;;;;;7.55;5.20;;;;;;;11.10;55.56;98171.47;5105269;28;20236;-78
2021/04/01 06:51:48;;;;;;;12.07;5.22;;;;;;;11.28;55.62;98173.31;5105907;27;20247;-75
2021/04/01 06:54:22;;;;;;;15.45;5.65;;;;;;;11.41;56.14;98170.22;5103975;28;20208;-76
2021/04/01 06:56:54;;;;;;;11.00;5.28;;;;;;;11.58;55.12;98162.53;5104825;28;20236;-80
2021/04/01 06:59:30;;;;;;;9.35;5.97;;;;;;;11.79;55.71;98165.13;5105146;28;20244;-74
2021/04/01 07:02:06;;;;;;;8.52;5.25;;;;;;;11.94;54.73;98161.88;5102868;27;20735;-74
2021/04/01 07:04:34;;;;;;;11.32;5.60;;;;;;;12.14;54.42;98161.81;5103129;28;20732;-75
2021/04/01 07:07:05;;;;;;;9.18;5.40;;;;;;;12.24;54.09;98164.03;5103654;27;20235;-74
2021/04/01 07:09:36;;;;;;;11.05;5.57;;;;;;;12.29;54.25;98165.53;5105235;27;20223;-75
2021/04/01 07:12:11;;;;;;;11.25;5.50;;;;;;;12.37;54.49;98161.72;5104107;27;20258;-76
2021/04/01 07:14:40;;;;;;;10.93;5.70;;;;;;;12.46;54.49;98161.28;5102598;28;20300;-75
2021/04/01 07:17:14;;;;;;;8.48;5.60;;;;;;;12.54;53.86;98160.03;5103358;28;21077;-76
2021/04/01 07:19:55;;;;;;;11.75;6.53;;;;;;;12.65;53.69;98162.13;5104925;28;20215;-76
2021/04/01 07:22:53;;;;;;;9.65;5.80;;;;;;;12.77;53.82;98165.09;5098513;27;20239;-75
2021/04/01 07:47:56;;;;;;;11.18;6.13;;;;;;;14.08;52.19;98147.22;5094268;28;20323;-74
2021/04/01 07:50:24;;;;;;;11.95;6.38;;;;;;;14.20;51.95;98147.47;5087621;28;20342;-74
2021/04/01 07:52:52;;;;;;;11.80;6.90;;;;;;;14.32;52.25;98154.69;5088001;28;20795;-74
2021/04/01 07:55:24;;;;;;;13.57;6.15;;;;;;;14.45;52.18;98155.72;5088160;28;20201;-75
2021/04/01 07:58:05;;;;;;;12.80;6.47;;;;;;;14.60;52.03;98153.22;5091827;28;20752;-74
2021/04/01 08:00:35;;;;;;;12.80;6.78;;;;;;;14.78;51.70;98167.13;5090537;28;20579;-74
2021/04/01 08:05:42;;;;;;;22.55;9.25;;;;;;;15.05;49.56;98164.72;5091130;28;20262;-74
2021/04/01 08:08:10;;;;;;;16.65;8.60;;;;;;;15.14;48.28;98164.19;5091992;28;20842;-75
2021/04/01 08:10:40;;;;;;;18.83;9.82;;;;;;;15.26;47.93;98161.81;5091170;28;20241;-75
2021/04/01 08:13:10;;;;;;;20.08;9.70;;;;;;;15.35;47.42;98162.13;5089789;28;20224;-74
2021/04/01 08:15:40;;;;;;;18.40;9.05;;;;;;;15.43;46.39;98148.53;5090675;28;20238;-75
2021/04/01 08:18:25;;;;;;;16.73;9.05;;;;;;;15.52;46.34;98150.63;5088516;28;20228;-75
2021/04/01 08:20:54;;;;;;;18.70;9.38;;;;;;;15.67;46.13;98150.66;5090167;28;20627;-75
2021/04/01 08:23:27;;;;;;;17.00;9.30;;;;;;;15.73;46.27;98148.53;5088967;28;20619;-75
2021/04/01 08:26:03;;;;;;;16.42;9.25;;;;;;;15.87;45.54;98142.44;5090178;28;20228;-75
2021/04/01 08:28:39;;;;;;;18.13;9.77;;;;;;;16.03;45.79;98149.41;5091099;28;20269;-75
2021/04/01 08:31:33;;;;;;;15.15;8.43;;;;;;;16.16;45.60;98129.31;5090877;28;20243;-75
2021/04/01 08:34:14;;;;;;;16.50;8.30;;;;;;;16.20;44.96;98141.34;5090088;28;20756;-75
2021/04/01 08:36:44;;;;;;;15.40;8.52;;;;;;;16.27;45.14;98137.38;5089470;28;20231;-75
2021/04/01 08:39:12;;;;;;;16.02;8.50;;;;;;;16.43;45.13;98139.06;5089475;28;20227;-76
2021/04/01 08:41:51;;;;;;;16.10;8.60;;;;;;;16.56;44.58;98132.94;5089601;28;20233;-75
2021/04/01 08:44:27;;;;;;;17.70;8.88;;;;;;;16.75;44.61;98135.22;5088803;28;21125;-75
2021/04/01 08:47:08;;;;;;;15.55;8.98;;;;;;;16.87;43.83;98135.41;5088685;28;20349;-75
2021/04/01 08:49:40;;;;;;;20.40;8.85;;;;;;;17.01;43.76;98132.72;5090958;28;20208;-76
2021/04/01 08:52:37;;;;;;;18.77;9.57;;;;;;;17.17;43.39;98129.09;5090920;28;20787;-77
2021/04/01 08:55:07;;;;;;;16.88;9.15;;;;;;;17.30;43.91;98130.81;5090004;28;20216;-75
2021/04/01 08:57:44;;;;;;;17.67;9.43;;;;;;;17.53;43.64;98129.28;5090439;28;20275;-75
2021/04/01 09:00:12;;;;;;;16.35;8.55;;;;;;;17.74;43.63;98128.78;5090676;28;20243;-75
2021/04/01 09:02:38;;;;;;;16.83;8.80;;;;;;;17.91;43.42;98125.84;5090161;28;20221;-75
2021/04/01 09:05:07;;;;;;;18.48;8.65;;;;;;;18.08;42.66;98113.28;5089796;28;20723;-75
2021/04/01 09:07:37;;;;;;;16.75;8.52;;;;;;;18.22;42.41;98122.88;5087361;28;20232;-76
2021/04/01 09:10:05;;;;;;;15.90;8.82;;;;;;;18.32;41.87;98120.44;5089471;28;20214;-76
2021/04/01 09:12:41;;;;;;;17.92;9.13;;;;;;;18.35;41.86;98123.69;5091568;28;20224;-75
2021/04/01 09:15:16;;;;;;;15.98;8.57;;;;;;;18.45;41.90;98123.88;5089166;28;20327;-76
2021/04/01 09:17:42;;;;;;;15.90;8.88;;;;;;;18.51;42.06;98128.75;5089288;28;20236;-75
2021/04/01 09:20:13;;;;;;;17.60;8.88;;;;;;;18.54;41.99;98122.38;5087349;28;20217;-75
2021/04/01 09:22:44;;;;;;;16.83;8.73;;;;;;;18.54;40.96;98117.09;5089514;28;20216;-76
2021/04/01 09:25:11;;;;;;;22.27;10.20;;;;;;;18.63;41.24;98119.91;5086275;28;20358;-75
2021/04/01 09:27:48;;;;;;;17.75;9.73;;;;;;;18.75;41.37;98109.41;5091733;28;20232;-78
2021/04/01 09:30:15;;;;;;;16.65;8.70;;;;;;;18.84;41.29;98111.44;5086669;28;20223;-80
2021/04/01 09:32:42;;;;;;;19.13;9.38;;;;;;;18.99;40.90;98112.13;5088724;28;20219;-79
2021/04/01 09:35:10;;;;;;;17.92;9.00;;;;;;;19.07;40.89;98110.56;5087867;28;20208;-77
2021/04/01 09:37:48;;;;;;;19.13;9.63;;;;;;;19.15;40.62;98111.81;5090687;28;20228;-79
2021/04/01 09:40:15;;;;;;;17.75;9.75;;;;;;;19.29;40.17;98102.84;5085530;28;20275;-78
2021/04/01 09:42:43;;;;;;;20.45;10.07;;;;;;;19.32;40.09;98100.81;5087527;28;20219;-77
2021/04/01 09:45:10;;;;;;;19.25;9.80;;;;;;;19.30;40.03;98093.94;5085403;28;20209;-76
2021/04/01 09:47:44;;;;;;;15.45;9.73;;;;;;;19.27;40.14;98101.16;5088628;28;20265;-76
2021/04/01 09:50:12;;;;;;;16.75;9.63;;;;;;;19.35;40.62;98103.22;5087370;28;20219;-76
2021/04/01 09:52:40;;;;;;;18.77;10.43;;;;;;;19.44;39.81;98102.53;5085340;28;20480;-78
2021/04/01 09:55:11;;;;;;;19.58;10.50;;;;;;;19.61;39.75;98100.41;5086374;28;20462;-78
2021/04/01 09:57:41;;;;;;;19.65;10.02;;;;;;;19.75;39.92;98105.50;5088440;28;20234;-78
2021/04/01 10:00:21;;;;;;;18.98;9.90;;;;;;;19.88;39.51;98093.97;5086969;28;20861;-78
2021/04/01 10:03:03;;;;;;;17.02;9.52;;;;;;;20.02;38.89;98099.06;5087664;28;20587;-77
2021/04/01 10:05:33;;;;;;;17.02;9.32;;;;;;;20.17;39.04;98089.88;5086525;28;20266;-77
2021/04/01 10:08:02;;;;;;;17.23;9.32;;;;;;;20.34;38.78;98101.78;5086997;28;20234;-78
2021/04/01 10:10:36;;;;;;;16.73;9.13;;;;;;;20.47;38.76;98091.06;5085181;28;20347;-77
2021/04/01 10:13:02;;;;;;;17.70;9.48;;;;;;;20.55;38.37;98086.00;5087589;28;20212;-76
2021/04/01 10:15:30;;;;;;;20.33;10.40;;;;;;;20.64;38.29;98080.94;5082424;28;20236;-77
2021/04/01 10:17:57;;;;;;;17.17;9.27;;;;;;;20.69;37.95;98082.25;5082779;28;20229;-77
2021/04/01 10:20:23;;;;;;;20.83;10.45;;;;;;;20.73;38.05;98074.88;5081557;28;21019;-76
2021/04/01 10:22:49;;;;;;;18.65;10.60;;;;;;;20.70;37.76;98075.16;5085682;28;20204;-76
2021/04/01 10:25:20;;;;;;;22.05;10.90;;;;;;;20.82;37.97;98074.13;5081900;28;20221;-77
2021/04/01 10:27:50;;;;;;;18.52;9.82;;;;;;;21.02;37.37;98069.00;5083754;28;20269;-78
2021/04/01 10:30:18;;;;;;;17.48;9.63;;;;;;;21.20;37.14;98066.66;5082892;28;20782;-76
2021/04/01 10:32:51;;;;;;;16.65;9.82;;;;;;;21.30;36.23;98063.09;5081191;28;20259;-76
2021/04/01 10:35:18;;;;;;;19.08;9.77;;;;;;;21.46;36.34;98056.53;5085383;28;20270;-77
2021/04/01 10:37:47;;;;;;;21.33;11.32;;;;;;;21.57;35.49;98053.78;5082198;28;20243;-76
2021/04/01 10:40:14;;;;;;;15.80;10.57;;;;;;;21.69;35.54;98043.97;5082299;28;20336;-77
2021/04/01 10:42:45;;;;;;;18.98;10.77;;;;;;;21.74;35.04;98045.25;5082907;28;20205;-77
2021/04/01 10:45:13;;;;;;;18.10;10.95;;;;;;;21.85;34.65;98040.78;5082359;28;21098;-76
2021/04/01 10:48:03;;;;;;;17.58;11.05;;;;;;;21.94;34.21;98040.00;5083135;28;21070;-76
2021/04/01 10:50:29;;;;;;;18.08;10.50;;;;;;;22.03;34.43;98043.66;5084407;28;20240;-76
2021/04/01 10:52:56;;;;;;;16.50;10.63;;;;;;;22.23;34.49;98039.25;5085411;28;20235;-76
2021/04/01 10:55:25;;;;;;;17.48;10.48;;;;;;;22.42;33.66;98034.00;5085603;28;20216;-76
2021/04/01 10:57:53;;;;;;;18.63;11.77;;;;;;;22.57;33.94;98034.47;5086143;28;20236;-76
2021/04/01 11:00:20;;;;;;;17.75;12.00;;;;;;;22.63;33.53;98030.44;5087631;27;20998;-76
2021/04/01 11:02:49;;;;;;;20.90;12.15;;;;;;;22.74;32.54;98032.94;5084773;28;20320;-76
2021/04/01 11:05:16;;;;;;;15.13;10.63;;;;;;;22.89;32.95;98025.41;5087633;28;20204;-76
2021/04/01 11:07:47;;;;;;;17.15;11.82;;;;;;;23.10;32.92;98027.94;5088657;28;20239;-76
2021/04/01 11:10:22;;;;;;;16.48;10.93;;;;;;;23.23;32.80;98017.84;5087690;28;20229;-77
2021/04/01 11:12:50;;;;;;;18.33;11.10;;;;;;;23.19;32.25;98021.75;5086666;28;20276;-77
2021/04/01 11:15:21;;;;;;;17.40;11.70;;;;;;;23.13;32.04;98016.19;5085952;28;20410;-76
2021/04/01 11:17:51;;;;;;;19.17;11.75;;;;;;;22.99;32.47;98020.91;5086525;28;20242;-76
2021/04/01 11:20:18;;;;;;;17.75;12.63;;;;;;;22.78;32.23;98023.72;5087770;28;20264;-77
2021/04/01 11:22:59;;;;;;;16.15;11.48;;;;;;;22.66;31.72;98024.81;5089048;28;20272;-76
2021/04/01 11:25:25;;;;;;;17.63;11.95;;;;;;;22.61;32.54;98027.91;5086476;28;20215;-76
2021/04/01 11:27:52;;;;;;;19.52;12.40;;;;;;;22.62;32.10;98023.41;5089514;28;20235;-76
2021/04/01 11:30:20;;;;;;;16.75;11.55;;;;;;;22.63;32.12;98019.78;5089208;28;20765;-76
2021/04/01 11:32:52;;;;;;;16.33;11.40;;;;;;;22.83;32.68;98021.47;5086480;28;20205;-76
2021/04/01 11:35:20;;;;;;;16.80;12.45;;;;;;;23.15;32.71;98014.22;5086752;28;20587;-76
2021/04/01 11:37:49;;;;;;;16.83;12.18;;;;;;;23.49;32.46;98006.59;5088520;28;20263;-77
2021/04/01 11:40:15;;;;;;;17.33;11.80;;;;;;;23.61;31.16;97996.59;5087304;28;20760;-76
2021/04/01 11:42:52;;;;;;;16.13;11.60;;;;;;;23.94;31.32;97995.22;5085669;28;20283;-76
2021/04/01 11:45:30;;;;;;;15.48;10.60;;;;;;;24.25;30.40;97989.59;5083904;28;20222;-77
2021/04/01 11:47:56;;;;;;;16.17;10.88;;;;;;;24.23;29.94;97999.56;5086201;28;20232;-76
2021/04/01 11:50:22;;;;;;;15.15;10.45;;;;;;;24.21;30.67;97997.03;5086051;28;20236;-75
2021/04/01 11:52:54;;;;;;;15.88;11.05;;;;;;;24.11;29.83;97990.09;5080348;28;20212;-76
2021/04/01 11:55:21;;;;;;;13.35;10.07;;;;;;;24.09;30.63;97992.06;5083758;28;20224;-75
2021/04/01 11:57:47;;;;;;;13.50;10.38;;;;;;;24.14;30.32;97984.47;5083338;28;20725;-76
2021/04/01 12:00:17;;;;;;;16.00;10.70;;;;;;;24.09;30.65;97992.06;5084483;28;20213;-75
2021/04/01 12:02:51;;;;;;;15.07;11.30;;;;;;;24.05;30.63;97987.03;5083402;28;20916;-75
2021/04/01 12:05:18;;;;;;;14.02;11.13;;;;;;;24.05;30.69;97991.53;5085522;28;20239;-78
2021/04/01 12:07:44;;;;;;;17.67;12.30;;;;;;;23.77;30.82;97988.81;5087053;28;20671;-78
2021/04/01 12:10:13;;;;;;;17.80;11.30;;;;;;;23.72;30.83;97984.91;5084475;28;20290;-78
2021/04/01 12:12:39;;;;;;;11.35;9.48;;;;;;;23.68;31.94;97984.38;5088243;28;21033;-77
2021/04/01 12:15:06;;;;;;;15.30;10.02;;;;;;;23.45;31.52;97983.88;5084086;28;20224;-78
2021/04/01 12:17:38;;;;;;;13.60;9.30;;;;;;;23.28;31.61;97994.28;5087646;28;20614;-77
2021/04/01 12:20:10;;;;;;;17.08;10.77;;;;;;;23.15;31.37;97983.13;5085087;28;20213;-79
2021/04/01 12:22:39;;;;;;;13.40;9.63;;;;;;;23.12;31.68;97985.22;5083236;28;20200;-76
2021/04/01 12:25:09;;;;;;;15.68;10.88;;;;;;;23.16;31.62;97984.81;5081473;28;21050;-76
2021/04/01 12:27:35;;;;;;;18.45;11.23;;;;;;;23.17;32.15;97986.47;5066402;28;20704;-77
2021/04/01 12:30:02;;;;;;;17.17;11.38;;;;;;;24.00;32.35;97986.63;5064331;28;20202;-76
2021/04/01 12:32:30;;;;;;;19.08;12.93;;;;;;;24.76;30.23;97977.47;5085994;28;21153;-77
2021/04/01 12:35:12;;;;;;;16.58;12.60;;;;;;;25.25;29.90;97978.84;5083497;28;20269;-76